createdAt,value
2019-05-10T00:00:19.213Z,99.20
2019-05-10T00:03:04.894Z,99.00
2019-05-10T00:05:50.721Z,99.00
2019-05-10T00:08:36.348Z,99.00
2019-05-10T00:11:32.748Z,99.40
2019-05-10T00:14:19.381Z,99.30
2019-05-10T00:16:48.148Z,99.90
2019-05-10T00:19:15.677Z,99.90
2019-05-10T00:21:43.033Z,99.90
2019-05-10T00:24:10.387Z,99.90
2019-05-10T00:26:37.720Z,99.90
2019-05-10T00:29:05.045Z,99.90
2019-05-10T00:31:32.379Z,99.90
2019-05-10T00:33:59.698Z,99.90
2019-05-10T00:36:27.313Z,99.90
2019-05-10T00:38:54.892Z,99.90
2019-05-10T00:41:22.213Z,99.90
2019-05-10T00:43:49.549Z,99.90
2019-05-10T00:46:16.885Z,99.90
2019-05-10T00:48:44.222Z,99.90
2019-05-10T00:51:11.590Z,99.90
2019-05-10T00:53:39.088Z,99.90
2019-05-10T00:56:06.441Z,99.90
2019-05-10T00:58:33.897Z,99.80
2019-05-10T01:01:01.260Z,99.80
2019-05-10T01:03:28.568Z,99.90
2019-05-10T01:05:55.958Z,99.90
2019-05-10T01:08:23.260Z,99.90
2019-05-10T01:10:50.608Z,99.90
2019-05-10T01:13:18.041Z,99.80
2019-05-10T01:15:46.927Z,99.90
2019-05-10T01:18:14.422Z,99.90
2019-05-10T01:20:41.727Z,99.90
2019-05-10T01:23:09.681Z,99.70
2019-05-10T01:25:36.989Z,99.50
2019-05-10T01:28:04.349Z,99.10
2019-05-10T01:30:31.773Z,99.20
2019-05-10T01:32:59.348Z,99.00
2019-05-10T01:35:26.665Z,98.80
2019-05-10T01:37:54.126Z,98.90
2019-05-10T01:40:21.465Z,98.80
2019-05-10T01:42:48.780Z,98.60
2019-05-10T01:45:16.476Z,97.80
2019-05-10T01:47:43.870Z,97.70
2019-05-10T01:50:11.317Z,98.00
2019-05-10T01:52:38.636Z,98.10
2019-05-10T01:55:06.152Z,98.10
2019-05-10T01:57:33.498Z,98.10
2019-05-10T02:00:00.824Z,97.70
2019-05-10T02:02:28.173Z,97.20
2019-05-10T02:04:55.657Z,97.10
2019-05-10T02:07:22.984Z,97.10
2019-05-10T02:09:50.335Z,96.90
2019-05-10T02:12:17.637Z,97.10
2019-05-10T02:14:45.253Z,97.10
2019-05-10T02:17:12.571Z,97.10
2019-05-10T02:19:39.926Z,97.20
2019-05-10T02:22:07.270Z,96.90
2019-05-10T02:24:34.685Z,97.40
2019-05-10T02:27:02.048Z,97.40
2019-05-10T02:29:29.401Z,97.40
2019-05-10T02:31:56.790Z,97.50
2019-05-10T02:34:24.149Z,97.80
2019-05-10T02:36:51.478Z,98.10
2019-05-10T02:39:18.879Z,97.70
2019-05-10T02:41:46.214Z,97.60
2019-05-10T02:44:13.514Z,97.50
2019-05-10T02:46:40.853Z,97.60
2019-05-10T02:49:08.370Z,97.50
2019-05-10T02:51:35.682Z,97.60
2019-05-10T02:54:03.287Z,97.60
2019-05-10T02:56:31.927Z,97.70
2019-05-10T02:59:00.529Z,97.70
2019-05-10T03:01:29.430Z,97.60
2019-05-10T03:04:00.761Z,98.20
2019-05-10T03:06:32.636Z,98.10
2019-05-10T03:09:04.190Z,98.30
2019-05-10T03:11:36.346Z,98.30
2019-05-10T03:14:09.230Z,98.50
2019-05-10T03:16:38.219Z,98.60
2019-05-10T03:19:07.643Z,98.70
2019-05-10T03:21:38.891Z,98.80
2019-05-10T03:24:06.278Z,99.10
2019-05-10T03:26:49.708Z,99.50
2019-05-10T03:29:03.353Z,99.70
2019-05-10T03:31:30.773Z,99.30
2019-05-10T03:33:58.286Z,99.60
2019-05-10T03:36:25.637Z,99.40
2019-05-10T03:38:52.949Z,99.60
2019-05-10T03:41:20.265Z,99.70
2019-05-10T03:43:47.768Z,99.90
2019-05-10T03:46:15.209Z,99.90
2019-05-10T03:48:42.521Z,99.90
2019-05-10T03:51:10.046Z,99.90
2019-05-10T03:53:37.426Z,99.90
2019-05-10T03:56:04.742Z,99.90
2019-05-10T03:58:32.050Z,99.90
2019-05-10T04:00:59.406Z,99.90
2019-05-10T04:03:26.688Z,99.90
2019-05-10T04:05:54.016Z,99.90
2019-05-10T04:08:21.581Z,99.90
2019-05-10T04:10:48.888Z,99.90
2019-05-10T04:13:16.346Z,99.90
2019-05-10T04:15:44.896Z,99.90
2019-05-10T04:18:12.218Z,99.90
2019-05-10T04:20:39.751Z,99.90
2019-05-10T04:23:07.203Z,99.90
2019-05-10T04:25:34.619Z,99.90
2019-05-10T04:28:01.942Z,99.90
2019-05-10T04:32:58.550Z,99.90
2019-05-10T04:35:25.893Z,99.90
2019-05-10T04:37:53.503Z,99.90
2019-05-10T04:40:20.862Z,99.90
2019-05-10T04:42:48.179Z,99.90
2019-05-10T04:45:16.054Z,99.90
2019-05-10T04:47:43.597Z,99.90
2019-05-10T04:50:11.102Z,99.90
2019-05-10T04:52:38.463Z,99.90
2019-05-10T04:55:06.204Z,99.90
2019-05-10T04:57:49.087Z,99.90
2019-05-10T05:00:03.611Z,99.90
2019-05-10T05:02:30.975Z,99.90
2019-05-10T05:04:58.365Z,99.90
2019-05-10T05:07:25.679Z,99.90
2019-05-10T05:09:53.108Z,99.90
2019-05-10T05:12:20.444Z,99.40
2019-05-10T05:14:47.989Z,98.90
2019-05-10T05:17:15.392Z,99.20
2019-05-10T05:19:42.718Z,99.30
2019-05-10T05:22:10.297Z,98.80
2019-05-10T05:24:37.612Z,97.90
2019-05-10T05:27:04.962Z,97.40
2019-05-10T05:29:32.336Z,96.90
2019-05-10T05:32:01.196Z,97.80
2019-05-10T05:34:28.854Z,97.50
2019-05-10T05:36:56.408Z,95.50
2019-05-10T05:39:24.074Z,95.80
2019-05-10T05:41:52.216Z,94.10
2019-05-10T05:44:26.261Z,94.70
2019-05-10T05:46:49.899Z,94.80
2019-05-10T05:49:17.258Z,94.50
2019-05-10T05:51:44.634Z,93.50
2019-05-10T05:54:15.104Z,91.80
2019-05-10T05:56:44.569Z,92.70
2019-05-10T05:59:10.691Z,92.60
2019-05-10T06:01:38.014Z,91.10
2019-05-10T06:04:06.547Z,92.20
2019-05-10T06:06:34.544Z,90.70
2019-05-10T06:09:01.895Z,90.50
2019-05-10T06:11:29.825Z,91.60
2019-05-10T06:14:03.578Z,90.00
2019-05-10T06:16:27.901Z,87.60
2019-05-10T06:18:55.189Z,89.90
2019-05-10T06:21:25.165Z,89.90
2019-05-10T06:23:51.965Z,90.50
2019-05-10T06:26:26.238Z,90.00
2019-05-10T06:28:59.735Z,88.80
2019-05-10T06:31:17.900Z,89.40
2019-05-10T06:33:46.745Z,90.30
2019-05-10T06:36:14.259Z,90.30
2019-05-10T06:38:41.593Z,90.40
2019-05-10T06:41:10.197Z,91.60
2019-05-10T06:43:38.128Z,90.70
2019-05-10T06:46:05.553Z,92.30
2019-05-10T06:48:33.726Z,88.80
2019-05-10T06:51:02.738Z,90.90
2019-05-10T06:53:30.450Z,87.60
2019-05-10T06:55:57.797Z,85.30
2019-05-10T06:58:25.147Z,85.40
2019-05-10T07:00:52.869Z,88.60
2019-05-10T07:03:20.273Z,84.30
2019-05-10T07:05:47.690Z,82.40
2019-05-10T07:08:20.133Z,81.10
2019-05-10T07:10:44.257Z,82.00
2019-05-10T07:13:11.576Z,82.80
2019-05-10T07:15:42.162Z,82.00
2019-05-10T07:18:08.170Z,81.10
2019-05-10T07:20:35.513Z,78.00
2019-05-10T07:23:06.295Z,78.80
2019-05-10T07:25:32.180Z,79.80
2019-05-10T07:27:59.489Z,78.70
2019-05-10T07:30:32.487Z,77.60
2019-05-10T07:33:01.830Z,77.80
2019-05-10T07:35:30.919Z,79.80
2019-05-10T07:37:58.424Z,79.70
2019-05-10T07:40:25.726Z,80.60
2019-05-10T07:42:53.069Z,79.50
2019-05-10T07:45:25.761Z,74.10
2019-05-10T07:47:49.612Z,73.80
2019-05-10T07:50:17.412Z,73.50
2019-05-10T07:52:45.768Z,71.30
2019-05-10T07:55:18.535Z,75.20
2019-05-10T07:57:42.964Z,71.20
2019-05-10T08:00:10.709Z,70.00
2019-05-10T08:02:38.068Z,70.10
2019-05-10T08:05:11.105Z,68.50
2019-05-10T08:07:34.971Z,67.00
2019-05-10T08:10:04.679Z,66.90
2019-05-10T08:12:35.132Z,65.90
2019-05-10T08:15:00.906Z,65.30
2019-05-10T08:17:28.795Z,66.40
2019-05-10T08:19:56.209Z,65.90
2019-05-10T08:22:23.556Z,61.60
2019-05-10T08:24:52.702Z,64.60
2019-05-10T08:27:22.873Z,63.00
2019-05-10T08:29:52.925Z,62.50
2019-05-10T08:32:19.343Z,64.20
2019-05-10T08:34:53.144Z,65.10
2019-05-10T08:37:19.290Z,67.40
2019-05-10T08:39:50.209Z,69.60
2019-05-10T08:42:34.700Z,74.20
2019-05-10T08:44:45.051Z,75.70
2019-05-10T08:47:22.223Z,79.80
2019-05-10T08:49:55.297Z,79.70
2019-05-10T08:52:12.181Z,84.10
2019-05-10T08:54:42.142Z,85.60
2019-05-10T08:57:08.913Z,84.30
2019-05-10T08:59:36.352Z,84.80
2019-05-10T09:02:03.749Z,83.60
2019-05-10T09:04:42.011Z,85.30
2019-05-10T09:07:02.664Z,85.00
2019-05-10T09:09:33.809Z,84.90
2019-05-10T09:12:04.175Z,81.10
2019-05-10T09:14:28.254Z,81.80
2019-05-10T09:17:00.787Z,80.50
2019-05-10T09:19:36.034Z,79.20
2019-05-10T09:21:54.981Z,78.70
2019-05-10T09:24:22.965Z,77.10
2019-05-10T09:26:54.894Z,76.40
2019-05-10T09:29:21.777Z,79.40
2019-05-10T09:31:50.589Z,76.30
2019-05-10T09:34:23.794Z,80.20
2019-05-10T09:36:47.377Z,80.10
2019-05-10T09:39:21.383Z,74.80
2019-05-10T09:41:44.726Z,75.20
2019-05-10T09:44:13.061Z,72.10
2019-05-10T09:46:43.708Z,67.40
2019-05-10T09:49:15.617Z,66.50
2019-05-10T09:51:42.330Z,65.80
2019-05-10T09:54:09.529Z,67.80
2019-05-10T09:56:39.654Z,66.30
2019-05-10T09:59:08.345Z,68.10
2019-05-10T10:01:37.072Z,69.60
2019-05-10T10:04:04.758Z,66.80
2019-05-10T10:06:32.159Z,72.40
2019-05-10T10:09:00.950Z,69.90
2019-05-10T10:11:28.513Z,66.40
2019-05-10T10:13:59.198Z,71.40
2019-05-10T10:16:25.161Z,66.50
2019-05-10T10:18:52.508Z,68.20
2019-05-10T10:21:30.614Z,64.80
2019-05-10T10:23:49.059Z,61.00
2019-05-10T10:26:20.334Z,62.50
2019-05-10T10:28:49.600Z,63.30
2019-05-10T10:31:27.096Z,64.30
2019-05-10T10:33:57.405Z,58.50
2019-05-10T10:36:13.637Z,59.30
2019-05-10T10:38:45.275Z,60.90
2019-05-10T10:41:10.240Z,57.40
2019-05-10T10:43:37.660Z,55.60
2019-05-10T10:46:11.874Z,58.10
2019-05-10T10:48:36.828Z,59.60
2019-05-10T10:51:04.145Z,58.80
2019-05-10T10:53:31.513Z,59.20
2019-05-10T10:56:03.437Z,59.40
2019-05-10T10:58:28.640Z,60.10
2019-05-10T11:00:55.977Z,60.20
2019-05-10T11:03:23.998Z,58.80
2019-05-10T11:06:00.303Z,57.70
2019-05-10T11:08:27.921Z,60.00
2019-05-10T11:10:55.230Z,62.30
2019-05-10T11:13:40.481Z,62.20
2019-05-10T11:15:51.865Z,64.00
2019-05-10T11:18:21.496Z,67.60
2019-05-10T11:20:49.795Z,72.20
2019-05-10T11:23:17.733Z,71.50
2019-05-10T11:25:54.711Z,76.70
2019-05-10T11:28:14.346Z,73.20
2019-05-10T11:30:41.729Z,71.50
2019-05-10T11:33:23.827Z,73.10
2019-05-10T11:35:41.505Z,75.00
2019-05-10T11:38:14.536Z,74.60
2019-05-10T11:40:37.246Z,76.00
2019-05-10T11:43:04.573Z,74.40
2019-05-10T11:45:36.587Z,78.30
2019-05-10T11:48:02.127Z,75.10
2019-05-10T11:50:34.562Z,72.40
2019-05-10T11:53:00.982Z,72.70
2019-05-10T11:55:28.209Z,71.20
2019-05-10T11:58:03.264Z,71.80
2019-05-10T12:00:31.334Z,73.50
2019-05-10T12:03:06.855Z,71.50
2019-05-10T12:10:25.761Z,67.30
2019-05-10T12:13:06.155Z,68.10
2019-05-10T12:15:25.146Z,72.90
2019-05-10T12:20:26.928Z,65.80
2019-05-10T12:22:51.481Z,62.50
2019-05-10T12:25:41.622Z,63.50
2019-05-10T12:26:06.272Z,71.50
2019-05-10T12:26:35.813Z,70.00
2019-05-10T12:27:49.083Z,63.20
2019-05-10T12:30:16.236Z,64.10
2019-05-10T12:32:55.776Z,63.30
2019-05-10T12:35:13.234Z,63.70
2019-05-10T12:37:46.291Z,60.20
2019-05-10T12:40:14.905Z,58.80
2019-05-10T12:42:41.724Z,60.80
2019-05-10T12:45:09.160Z,60.10
2019-05-10T12:47:36.589Z,62.60
2019-05-10T12:50:04.579Z,57.60
2019-05-10T12:52:32.234Z,59.70
2019-05-10T12:54:59.756Z,61.70
2019-05-10T12:57:27.185Z,55.70
2019-05-10T12:59:54.562Z,53.80
2019-05-10T13:02:21.958Z,53.90
2019-05-10T13:04:52.585Z,53.90
2019-05-10T13:07:18.599Z,53.00
2019-05-10T13:09:49.708Z,52.80
2019-05-10T13:12:15.685Z,52.00
2019-05-10T13:14:46.510Z,53.40
2019-05-10T13:17:16.488Z,53.80
2019-05-10T13:19:41.544Z,53.50
2019-05-10T13:22:08.878Z,52.20
2019-05-10T13:24:36.235Z,51.60
2019-05-10T13:27:03.743Z,56.80
2019-05-10T13:29:31.171Z,51.10
2019-05-10T13:31:58.604Z,51.80
2019-05-10T13:34:26.091Z,50.00
2019-05-10T13:36:53.529Z,49.70
2019-05-10T13:39:25.578Z,53.50
2019-05-10T13:41:50.354Z,49.10
2019-05-10T13:44:18.057Z,48.30
2019-05-10T13:46:45.559Z,44.70
2019-05-10T13:49:12.899Z,45.70
2019-05-10T13:51:40.354Z,45.50
2019-05-10T13:54:07.776Z,45.00
2019-05-10T13:56:35.133Z,47.70
2019-05-10T13:59:13.859Z,48.90
2019-05-10T14:01:31.733Z,47.60
2019-05-10T14:04:01.152Z,48.60
2019-05-10T14:06:28.618Z,48.40
2019-05-10T14:08:56.811Z,47.70
2019-05-10T14:11:24.197Z,45.70
2019-05-10T14:13:51.584Z,46.20
2019-05-10T14:16:22.366Z,47.30
2019-05-10T14:18:48.307Z,47.00
2019-05-10T14:21:15.685Z,45.20
2019-05-10T14:23:43.052Z,44.90
2019-05-10T14:26:15.824Z,43.70
2019-05-10T14:28:39.827Z,45.20
2019-05-10T14:31:07.166Z,47.30
2019-05-10T14:33:34.796Z,46.00
2019-05-10T14:36:03.337Z,43.80
2019-05-10T14:38:31.186Z,46.20
2019-05-10T14:41:03.871Z,43.30
2019-05-10T14:43:27.827Z,47.40
2019-05-10T14:45:55.209Z,46.20
2019-05-10T14:48:28.532Z,44.50
2019-05-10T14:50:51.915Z,43.20
2019-05-10T14:53:20.094Z,43.20
2019-05-10T14:55:48.574Z,44.20
2019-05-10T14:58:15.897Z,44.70
2019-05-10T15:00:43.222Z,45.70
2019-05-10T15:03:10.760Z,45.50
2019-05-10T15:05:38.694Z,48.70
2019-05-10T15:08:06.052Z,46.90
2019-05-10T15:10:39.560Z,46.20
2019-05-10T15:13:03.233Z,44.70
2019-05-10T15:15:31.257Z,45.00
2019-05-10T15:18:01.874Z,44.20
2019-05-10T15:20:29.122Z,45.90
2019-05-10T15:22:56.615Z,43.20
2019-05-10T15:25:24.388Z,43.30
2019-05-10T15:27:54.813Z,43.80
2019-05-10T15:30:21.161Z,42.90
2019-05-10T15:32:48.538Z,46.40
2019-05-10T15:35:16.046Z,46.00
2019-05-10T15:37:46.295Z,42.80
2019-05-10T15:40:13.334Z,43.60
2019-05-10T15:42:40.686Z,46.30
2019-05-10T15:45:12.133Z,47.80
2019-05-10T15:47:50.078Z,46.10
2019-05-10T15:50:07.286Z,47.10
2019-05-10T15:52:39.649Z,47.60
2019-05-10T15:55:04.053Z,46.40
2019-05-10T15:57:32.599Z,47.70
2019-05-10T16:00:00.184Z,46.20
2019-05-10T16:02:27.534Z,46.20
2019-05-10T16:04:54.922Z,47.80
2019-05-10T16:07:22.282Z,44.90
2019-05-10T16:09:54.049Z,44.20
2019-05-10T16:12:18.852Z,47.10
2019-05-10T16:14:46.217Z,46.90
2019-05-10T16:17:17.534Z,46.40
2019-05-10T16:19:42.880Z,46.00
2019-05-10T16:22:10.276Z,45.20
2019-05-10T16:24:37.572Z,45.80
2019-05-10T16:27:05.219Z,45.30
2019-05-10T16:29:33.842Z,43.10
2019-05-10T16:32:01.809Z,43.90
2019-05-10T16:34:32.380Z,43.00
2019-05-10T16:36:58.588Z,44.70
2019-05-10T16:39:25.908Z,45.30
2019-05-10T16:41:53.229Z,48.20
2019-05-10T16:44:20.993Z,47.80
2019-05-10T16:46:48.508Z,47.80
2019-05-10T16:49:17.235Z,46.00
2019-05-10T16:51:47.651Z,46.30
2019-05-10T16:54:24.301Z,47.80
2019-05-10T16:59:10.449Z,49.10
2019-05-10T17:01:37.787Z,49.20
2019-05-10T17:04:05.178Z,49.60
2019-05-10T17:06:35.445Z,50.90
2019-05-10T17:09:01.951Z,51.20
2019-05-10T17:11:29.278Z,51.60
2019-05-10T17:13:56.522Z,54.40
2019-05-10T17:16:23.958Z,52.00
2019-05-10T17:18:55.227Z,51.00
2019-05-10T17:21:20.793Z,51.80
2019-05-10T17:23:48.643Z,51.70
2019-05-10T17:26:16.210Z,52.00
2019-05-10T17:28:44.313Z,50.70
2019-05-10T17:31:11.827Z,52.20
2019-05-10T17:33:42.640Z,50.90
2019-05-10T17:36:08.992Z,50.50
2019-05-10T17:38:36.519Z,52.70
2019-05-10T17:41:03.890Z,51.90
2019-05-10T17:43:31.210Z,51.20
2019-05-10T17:45:58.604Z,52.20
2019-05-10T17:48:25.981Z,53.10
2019-05-10T17:50:53.320Z,52.50
2019-05-10T17:53:20.703Z,53.20
2019-05-10T17:55:49.394Z,52.80
2019-05-10T17:58:17.392Z,53.80
2019-05-10T18:00:45.073Z,54.10
2019-05-10T18:03:12.418Z,54.10
2019-05-10T18:05:41.264Z,54.90
2019-05-10T18:08:09.125Z,55.20
2019-05-10T18:10:36.485Z,55.90
2019-05-10T18:13:05.268Z,55.60
2019-05-10T18:15:34.538Z,57.70
2019-05-10T18:18:02.735Z,59.10
2019-05-10T18:20:40.805Z,57.60
2019-05-10T18:23:00.488Z,58.50
2019-05-10T18:25:27.853Z,57.50
2019-05-10T18:27:55.223Z,58.00
2019-05-10T18:30:22.664Z,60.00
2019-05-10T18:32:50.041Z,61.90
2019-05-10T18:35:17.518Z,62.80
2019-05-10T18:37:44.889Z,64.10
2019-05-10T18:40:13.341Z,64.70
2019-05-10T18:42:40.701Z,64.20
2019-05-10T18:45:08.274Z,64.70
2019-05-10T18:47:35.822Z,66.20
2019-05-10T18:50:03.448Z,68.20
2019-05-10T18:52:30.830Z,68.60
2019-05-10T18:54:58.223Z,72.30
2019-05-10T18:57:25.708Z,72.90
2019-05-10T18:59:53.113Z,72.20
2019-05-10T19:02:20.682Z,73.30
2019-05-10T19:04:51.870Z,75.20
2019-05-10T19:07:17.369Z,74.50
2019-05-10T19:09:44.825Z,74.20
2019-05-10T19:12:18.409Z,73.80
2019-05-10T19:14:41.450Z,73.90
2019-05-10T19:17:09.466Z,74.70
2019-05-10T19:19:39.934Z,76.20
2019-05-10T19:22:08.755Z,76.20
2019-05-10T19:24:35.558Z,77.00
2019-05-10T19:27:07.493Z,76.00
2019-05-10T19:29:32.160Z,76.70
2019-05-10T19:31:59.502Z,79.00
2019-05-10T19:34:26.878Z,82.10
2019-05-10T19:36:54.230Z,82.80
2019-05-10T19:39:21.677Z,82.90
2019-05-10T19:41:49.059Z,83.70
2019-05-10T19:44:16.459Z,84.30
2019-05-10T19:46:43.895Z,83.00
2019-05-10T19:49:13.293Z,82.60
2019-05-10T19:51:42.155Z,82.00
2019-05-10T19:54:13.544Z,82.30
2019-05-10T19:56:39.054Z,82.80
2019-05-10T19:59:11.837Z,81.50
2019-05-10T20:01:35.679Z,81.30
2019-05-10T20:04:03.117Z,81.30
2019-05-10T20:06:30.549Z,83.50
2019-05-10T20:08:57.929Z,84.90
2019-05-10T20:11:25.222Z,87.00
2019-05-10T20:13:52.597Z,88.50
2019-05-10T20:16:19.968Z,89.20
2019-05-10T20:18:47.674Z,90.10
2019-05-10T20:21:14.970Z,90.10
2019-05-10T20:23:42.380Z,90.20
2019-05-10T20:26:09.795Z,90.20
2019-05-10T20:28:37.213Z,90.20
2019-05-10T20:31:04.867Z,87.30
2019-05-10T20:33:32.205Z,87.30
2019-05-10T20:35:59.600Z,87.20
2019-05-10T20:38:27.088Z,87.50
2019-05-10T20:40:54.461Z,88.10
2019-05-10T20:43:21.782Z,87.60
2019-05-10T20:45:49.191Z,87.50
2019-05-10T20:48:16.673Z,88.70
2019-05-10T20:50:44.078Z,90.50
2019-05-10T20:53:11.488Z,91.40
2019-05-10T20:55:38.949Z,91.50
2019-05-10T20:58:06.382Z,91.00
2019-05-10T21:00:33.771Z,90.60
2019-05-10T21:03:01.269Z,88.10
2019-05-10T21:05:28.617Z,88.80
2019-05-10T21:07:55.961Z,87.10
2019-05-10T21:10:23.379Z,86.60
2019-05-10T21:12:50.936Z,86.20
2019-05-10T21:15:18.255Z,88.50
2019-05-10T21:17:45.662Z,88.30
2019-05-10T21:20:13.106Z,90.00
2019-05-10T21:22:40.486Z,89.80
2019-05-10T21:25:07.904Z,87.90
2019-05-10T21:27:35.457Z,86.40
2019-05-10T21:30:03.278Z,86.30
2019-05-10T21:32:30.712Z,87.60
2019-05-10T21:34:58.221Z,89.00
2019-05-10T21:37:25.574Z,90.60
2019-05-10T21:39:52.929Z,92.50
2019-05-10T21:42:20.294Z,93.00
2019-05-10T21:44:47.671Z,93.00
2019-05-10T21:47:15.064Z,93.20
2019-05-10T21:49:42.535Z,93.00
2019-05-10T21:52:09.916Z,93.30
2019-05-10T21:54:37.339Z,93.50
2019-05-10T21:57:04.669Z,92.60
2019-05-10T21:59:31.999Z,92.60
2019-05-10T22:01:59.366Z,92.90
2019-05-10T22:04:26.718Z,94.20
2019-05-10T22:06:54.044Z,94.90
2019-05-10T22:09:21.471Z,93.80
2019-05-10T22:11:48.887Z,94.30
2019-05-10T22:14:16.254Z,95.10
2019-05-10T22:16:43.609Z,95.40
2019-05-10T22:19:11.001Z,96.20
2019-05-10T22:21:38.320Z,95.60
2019-05-10T22:24:05.658Z,95.90
2019-05-10T22:26:32.953Z,95.60
2019-05-10T22:29:00.553Z,95.80
2019-05-10T22:31:27.887Z,96.60
2019-05-10T22:33:55.273Z,96.80
2019-05-10T22:36:22.638Z,97.10
2019-05-10T22:39:05.780Z,96.20
2019-05-10T22:41:19.362Z,96.40
2019-05-10T22:43:46.718Z,95.70
2019-05-10T22:46:14.525Z,95.80
2019-05-10T22:48:41.894Z,95.60
2019-05-10T22:51:09.254Z,96.60
2019-05-10T22:53:36.606Z,96.80
2019-05-10T22:56:04.301Z,97.00
2019-05-10T22:58:31.608Z,97.40
2019-05-10T23:00:59.026Z,97.60
2019-05-10T23:03:26.378Z,98.40
2019-05-10T23:05:53.838Z,98.70
2019-05-10T23:08:21.586Z,99.40
2019-05-10T23:10:48.958Z,99.10
2019-05-10T23:13:16.285Z,99.00
2019-05-10T23:15:43.736Z,98.90
2019-05-10T23:18:11.097Z,98.90
2019-05-10T23:20:38.478Z,99.10
2019-05-10T23:23:05.820Z,99.30
2019-05-10T23:25:33.162Z,99.50
2019-05-10T23:28:00.525Z,99.70
2019-05-10T23:30:27.833Z,99.60
2019-05-10T23:32:55.148Z,99.90
2019-05-10T23:35:22.501Z,99.90
2019-05-10T23:37:49.806Z,99.90
2019-05-10T23:40:17.099Z,99.90
2019-05-10T23:42:44.590Z,98.80
2019-05-10T23:45:13.902Z,98.70
2019-05-10T23:47:41.409Z,98.80
2019-05-10T23:50:08.832Z,99.40
2019-05-10T23:52:36.421Z,99.20
2019-05-10T23:55:03.964Z,98.80
2019-05-10T23:57:31.340Z,99.20
2019-05-10T23:59:58.917Z,99.30
